createdAt,value
2023-10-09T00:00:35.257Z,95572.97
2023-10-09T00:21:14.149Z,95561.78
2023-10-09T00:29:35.910Z,95550.09
2023-10-09T00:41:10.625Z,95542.13
2023-10-09T00:46:47.203Z,95534.16
2023-10-09T00:49:17.261Z,95541.00
2023-10-09T00:51:57.523Z,95538.63
2023-10-09T00:54:28.906Z,95529.59
2023-10-09T00:57:07.981Z,95533.56
2023-10-09T00:59:35.546Z,95527.72
2023-10-09T01:02:08.153Z,95525.06
2023-10-09T01:04:42.607Z,95529.00
2023-10-09T01:07:26.762Z,95516.22
2023-10-09T01:27:50.532Z,95502.00
2023-10-09T01:39:28.017Z,95486.00
2023-10-09T01:44:55.468Z,95476.41
2023-10-09T01:47:54.284Z,95478.34
2023-10-09T01:53:09.206Z,95471.22
2023-10-09T01:58:24.603Z,95465.66
2023-10-09T02:00:56.365Z,95471.50
2023-10-09T02:03:27.180Z,95475.75
2023-10-09T02:06:04.588Z,95470.72
2023-10-09T02:08:31.643Z,95464.31
2023-10-09T02:10:58.308Z,95471.41
2023-10-09T02:13:31.225Z,95462.63
2023-10-09T02:16:14.571Z,95466.56
2023-10-09T02:18:54.192Z,95464.66
2023-10-09T02:30:30.961Z,95456.13
2023-10-09T02:45:11.930Z,95447.31
2023-10-09T02:47:40.956Z,95442.00
2023-10-09T02:56:13.983Z,95428.44
2023-10-09T03:04:42.912Z,95414.91
2023-10-09T03:07:14.830Z,95415.75
2023-10-09T03:09:42.046Z,95408.09
2023-10-09T03:15:00.163Z,95417.38
2023-10-09T03:17:27.426Z,95419.53
2023-10-09T03:19:55.851Z,95413.25
2023-10-09T03:22:22.888Z,95413.25
2023-10-09T03:24:51.553Z,95414.31
2023-10-09T03:27:20.356Z,95410.41
2023-10-09T03:29:51.154Z,95406.47
2023-10-09T03:32:18.765Z,95404.66
2023-10-09T03:34:45.331Z,95403.84
2023-10-09T03:37:23.749Z,95401.44
2023-10-09T03:39:52.744Z,95398.19
2023-10-09T03:42:24.213Z,95390.94
2023-10-09T03:44:54.937Z,95394.59
2023-10-09T03:47:26.066Z,95392.97
2023-10-09T03:49:55.326Z,95391.28
2023-10-09T03:52:27.226Z,95381.72
2023-10-09T03:54:54.579Z,95381.16
2023-10-09T03:57:21.847Z,95383.25
2023-10-09T03:59:48.662Z,95376.59
2023-10-09T04:02:16.137Z,95384.03
2023-10-09T04:04:48.418Z,95385.84
2023-10-09T04:07:18.022Z,95381.59
2023-10-09T04:09:49.356Z,95377.38
2023-10-09T04:12:26.124Z,95375.75
2023-10-09T04:14:56.632Z,95376.22
2023-10-09T04:17:30.840Z,95385.16
2023-10-09T04:20:16.681Z,95380.03
2023-10-09T04:22:52.959Z,95380.25
2023-10-09T04:25:42.008Z,95372.53
2023-10-09T04:28:15.561Z,95369.59
2023-10-09T04:30:44.714Z,95368.00
2023-10-09T04:33:29.828Z,95374.34
2023-10-09T04:36:15.530Z,95370.28
2023-10-09T04:38:57.216Z,95375.50
2023-10-09T04:44:52.815Z,95371.56
2023-10-09T04:47:37.029Z,95367.63
2023-10-09T04:50:12.966Z,95371.63
2023-10-09T04:52:39.829Z,95368.75
2023-10-09T04:55:10.751Z,95371.13
2023-10-09T04:57:47.201Z,95366.34
2023-10-09T05:00:27.414Z,95371.56
2023-10-09T05:06:22.152Z,95371.28
2023-10-09T05:14:46.760Z,95380.31
2023-10-09T05:17:17.216Z,95380.63
2023-10-09T05:19:56.138Z,95378.53
2023-10-09T05:25:41.437Z,95385.91
2023-10-09T05:28:26.675Z,95385.38
2023-10-09T05:31:09.502Z,95379.72
2023-10-09T05:33:38.344Z,95385.50
2023-10-09T05:36:15.874Z,95385.22
2023-10-09T05:38:47.474Z,95384.59
2023-10-09T05:41:48.838Z,95386.94
2023-10-09T05:44:34.449Z,95389.38
2023-10-09T05:47:21.511Z,95385.44
2023-10-09T05:49:48.452Z,95382.56
2023-10-09T05:52:34.013Z,95390.00
2023-10-09T05:55:19.292Z,95387.09
2023-10-09T05:58:04.732Z,95390.31
2023-10-09T06:00:49.983Z,95398.34
2023-10-09T06:03:24.966Z,95405.84
2023-10-09T06:06:03.233Z,95403.75
2023-10-09T06:08:42.557Z,95405.69
2023-10-09T06:11:28.391Z,95402.31
2023-10-09T06:14:10.720Z,95411.38
2023-10-09T06:16:40.217Z,95409.94
2023-10-09T06:19:27.754Z,95412.66
2023-10-09T06:22:13.454Z,95412.28
2023-10-09T06:24:43.602Z,95420.38
2023-10-09T06:27:25.314Z,95420.25
2023-10-09T06:29:52.375Z,95415.09
2023-10-09T06:32:20.260Z,95426.88
2023-10-09T06:35:15.453Z,95427.25
2023-10-09T06:38:01.993Z,95418.38
2023-10-09T06:40:37.607Z,95427.50
2023-10-09T06:43:18.024Z,95424.91
2023-10-09T06:45:55.502Z,95426.34
2023-10-09T06:48:40.781Z,95429.56
2023-10-09T06:51:28.028Z,95423.78
2023-10-09T06:53:55.349Z,95424.91
2023-10-09T06:56:45.123Z,95423.63
2023-10-09T06:59:22.686Z,95429.50
2023-10-09T07:02:12.429Z,95425.63
2023-10-09T07:04:39.268Z,95429.44
2023-10-09T07:07:36.789Z,95431.06
2023-10-09T07:10:22.426Z,95427.06
2023-10-09T07:12:55.981Z,95420.41
2023-10-09T07:15:42.555Z,95422.28
2023-10-09T07:18:24.393Z,95424.59
2023-10-09T07:21:00.695Z,95422.63
2023-10-09T07:23:34.323Z,95421.94
2023-10-09T07:26:19.348Z,95421.31
2023-10-09T07:28:49.448Z,95427.50
2023-10-09T07:31:25.838Z,95428.31
2023-10-09T07:33:59.651Z,95435.78
2023-10-09T07:36:35.976Z,95430.69
2023-10-09T07:39:14.986Z,95418.84
2023-10-09T07:41:46.515Z,95427.28
2023-10-09T07:44:20.562Z,95412.22
2023-10-09T07:49:55.418Z,95420.88
2023-10-09T07:52:23.043Z,95420.66
2023-10-09T07:54:54.375Z,95421.75
2023-10-09T07:57:27.185Z,95420.25
2023-10-09T08:00:02.400Z,95426.03
2023-10-09T08:02:40.093Z,95419.88
2023-10-09T08:05:08.624Z,95423.09
2023-10-09T08:08:04.270Z,95420.34
2023-10-09T08:10:24.200Z,95427.53
2023-10-09T08:12:51.040Z,95420.72
2023-10-09T08:15:21.143Z,95414.69
2023-10-09T08:18:11.849Z,95418.28
2023-10-09T08:20:57.224Z,95425.69
2023-10-09T08:23:49.342Z,95428.09
2023-10-09T08:26:30.364Z,95427.97
2023-10-09T08:29:16.222Z,95419.44
2023-10-09T08:31:46.722Z,95425.13
2023-10-09T08:36:55.992Z,95430.34
2023-10-09T08:39:30.961Z,95428.47
2023-10-09T08:42:06.234Z,95423.91
2023-10-09T08:44:34.973Z,95424.88
2023-10-09T08:47:01.830Z,95430.09
2023-10-09T08:49:29.146Z,95435.34
2023-10-09T08:51:56.768Z,95435.34
2023-10-09T08:54:23.447Z,95432.16
2023-10-09T08:56:52.925Z,95432.50
2023-10-09T08:59:21.348Z,95435.19
2023-10-09T09:01:50.976Z,95431.19
2023-10-09T09:04:39.713Z,95436.94
2023-10-09T09:07:08.448Z,95433.09
2023-10-09T09:09:35.716Z,95438.00
2023-10-09T09:12:02.528Z,95438.81
2023-10-09T09:14:40.003Z,95435.94
2023-10-09T09:17:12.226Z,95434.53
2023-10-09T09:19:39.346Z,95435.47
2023-10-09T09:22:13.842Z,95422.94
2023-10-09T09:24:40.829Z,95428.19
2023-10-09T09:27:19.891Z,95430.41
2023-10-09T09:29:54.646Z,95430.06
2023-10-09T09:32:31.604Z,95433.38
2023-10-09T09:34:58.398Z,95430.06
2023-10-09T09:37:29.763Z,95432.78
2023-10-09T09:39:58.619Z,95432.13
2023-10-09T09:42:28.632Z,95432.44
2023-10-09T09:47:56.065Z,95436.72
2023-10-09T09:50:27.797Z,95435.78
2023-10-09T09:52:55.013Z,95433.88
2023-10-09T09:55:30.681Z,95437.81
2023-10-09T09:57:58.642Z,95435.47
2023-10-09T10:03:03.246Z,95444.34
2023-10-09T10:05:31.193Z,95445.59
2023-10-09T10:07:59.012Z,95442.25
2023-10-09T10:10:35.460Z,95447.66
2023-10-09T10:13:02.692Z,95452.75
2023-10-09T10:15:47.291Z,95448.28
2023-10-09T10:18:20.706Z,95454.44
2023-10-09T10:23:09.233Z,95449.97
2023-10-09T10:25:42.439Z,95455.06
2023-10-09T10:28:29.974Z,95452.06
2023-10-09T10:30:59.108Z,95449.34
2023-10-09T10:33:25.956Z,95450.28
2023-10-09T10:35:52.793Z,95447.13
2023-10-09T10:41:24.899Z,95444.53
2023-10-09T10:43:55.953Z,95442.50
2023-10-09T10:46:39.944Z,95442.97
2023-10-09T10:49:21.950Z,95444.84
2023-10-09T10:51:51.127Z,95439.31
2023-10-09T10:54:34.569Z,95441.25
2023-10-09T11:10:33.618Z,95419.03
2023-10-09T11:13:09.766Z,95414.75
2023-10-09T11:15:47.899Z,95410.59
2023-10-09T11:18:21.711Z,95418.69
2023-10-09T11:21:05.608Z,95419.47
2023-10-09T11:23:35.647Z,95422.34
2023-10-09T11:26:27.414Z,95420.28
2023-10-09T11:29:14.976Z,95421.75
2023-10-09T11:40:53.616Z,95409.88
2023-10-09T11:56:56.546Z,95394.53
2023-10-09T11:59:25.055Z,95390.50
2023-10-09T12:01:54.369Z,95397.06
2023-10-09T12:04:21.317Z,95403.44
2023-10-09T12:06:50.634Z,95397.41
2023-10-09T12:09:19.146Z,95395.31
2023-10-09T12:12:03.090Z,95398.28
2023-10-09T12:14:38.862Z,95397.88
2023-10-09T12:17:08.836Z,95402.88
2023-10-09T12:19:36.463Z,95393.75
2023-10-09T12:22:06.831Z,95402.81
2023-10-09T12:24:34.381Z,95405.81
2023-10-09T12:27:01.859Z,95402.41
2023-10-09T12:29:31.721Z,95401.00
2023-10-09T12:45:48.880Z,95391.16
2023-10-09T12:57:22.248Z,95400.88
2023-10-09T13:06:11.281Z,95399.72
2023-10-09T14:43:34.690Z,95390.63
2023-10-09T14:46:01.736Z,95375.53
2023-10-09T14:48:38.100Z,95354.91
2023-10-09T14:56:35.363Z,95340.88
2023-10-09T14:59:09.049Z,95348.03
2023-10-09T15:01:36.107Z,95336.34
2023-10-09T15:04:03.223Z,95334.78
2023-10-09T15:06:31.602Z,95328.66
2023-10-09T15:11:42.211Z,95335.19
2023-10-09T15:14:26.467Z,95334.41
2023-10-09T15:22:26.501Z,95328.38
2023-10-09T15:30:15.529Z,95320.00
2023-10-09T15:32:47.848Z,95310.34
2023-10-09T15:35:22.491Z,95316.19
2023-10-09T15:37:49.602Z,95320.94
2023-10-09T15:40:16.897Z,95322.22
2023-10-09T15:42:44.454Z,95324.91
2023-10-09T15:45:14.867Z,95332.69
2023-10-09T15:47:41.769Z,95332.69
2023-10-09T15:52:55.428Z,95346.13
2023-10-09T15:55:27.068Z,95338.34
2023-10-09T16:00:41.275Z,95345.63
2023-10-09T16:03:12.064Z,95346.56
